Terminal Aerodrome Forecast
Issued by NWS Twin Cities, MN

Home | Current Version | Previous Version | Graphics & Text | Print | Product List | Glossary On
Versions: 1 2 3 4 5 6 7 8 9 10 11 12 13 14
839
FTUS43 KMPX 221722
TAFEAU
TAF
KEAU 221722Z 2218/2318 18012G20KT P6SM FEW090
     FM230100 18010KT P6SM SKC
     FM231500 19013G19KT P6SM SKC=

USA.gov is the U.S. government's official web portal to all federal, state and local government web resources and services.